Time;durP1;ratioP1;P1;durP2;ratioP2;P2;SDS_P1;SDS_P2;PMS_P1;PMS_P2;Temp;Humidity;BMP_temperature;BMP_pressure;BME280_temperature;BME280_humidity;BME280_pressure;Samples;Min_cycle;Max_cycle;Signal;HPM_P1;HPM_P2
2023/07/23 00:00:13;;;;;;;8.70;4.93;;;16.60;1.00;;;;;;6248562;23;20183;-96
2023/07/23 00:02:39;;;;;;;6.53;5.10;;;16.60;99.90;;;;;;6247753;23;20195;-94
2023/07/23 00:05:07;;;;;;;8.35;5.20;;;16.60;1.00;;;;;;6247677;23;20171;-95
2023/07/23 00:07:34;;;;;;;7.50;5.00;;;16.60;99.90;;;;;;6247809;23;20250;-96
2023/07/23 00:10:01;;;;;;;8.20;5.47;;;16.60;99.90;;;;;;6248079;23;20243;-94
2023/07/23 00:12:28;;;;;;;8.15;5.25;;;16.70;99.90;;;;;;6248269;23;20198;-95
2023/07/23 00:14:56;;;;;;;7.18;5.25;;;16.70;99.90;;;;;;6247848;23;20683;-95
2023/07/23 00:17:23;;;;;;;6.38;4.72;;;16.70;99.90;;;;;;6247658;23;20558;-95
2023/07/23 00:19:49;;;;;;;6.50;5.18;;;16.70;99.90;;;;;;6247128;23;20258;-94
2023/07/23 00:22:16;;;;;;;5.97;5.07;;;16.70;99.90;;;;;;6247174;23;20168;-96
2023/07/23 00:24:45;;;;;;;6.40;4.93;;;16.70;99.90;;;;;;6247709;23;20175;-95
2023/07/23 00:27:13;;;;;;;8.13;5.10;;;16.70;99.90;;;;;;6247576;23;20699;-95
2023/07/23 00:29:40;;;;;;;6.22;4.72;;;16.70;99.90;;;;;;6247386;23;20307;-96
2023/07/23 00:32:09;;;;;;;7.38;4.88;;;16.70;99.90;;;;;;6247088;23;20192;-96
2023/07/23 00:34:36;;;;;;;6.53;5.18;;;16.60;99.90;;;;;;6247893;23;20211;-96
2023/07/23 00:37:03;;;;;;;7.85;4.93;;;16.70;99.90;;;;;;6247643;23;20270;-94
2023/07/23 00:39:30;;;;;;;7.65;5.47;;;16.70;99.90;;;;;;6247813;23;20250;-95
2023/07/23 00:41:58;;;;;;;7.20;4.93;;;16.60;99.90;;;;;;6247089;23;20246;-93
2023/07/23 00:44:25;;;;;;;8.73;5.55;;;16.70;99.90;;;;;;6247448;23;20178;-94
2023/07/23 00:46:52;;;;;;;7.28;5.05;;;16.60;99.90;;;;;;6247606;23;20203;-94
2023/07/23 00:49:21;;;;;;;6.97;5.35;;;16.70;99.90;;;;;;6247375;23;20274;-93
2023/07/23 00:51:48;;;;;;;6.60;4.88;;;16.70;99.90;;;;;;6247075;23;20168;-93
2023/07/23 00:54:15;;;;;;;9.15;5.57;;;16.60;99.90;;;;;;6247343;23;20246;-93
2023/07/23 00:56:44;;;;;;;6.00;5.00;;;16.60;99.90;;;;;;6246830;23;20231;-93
2023/07/23 00:59:11;;;;;;;11.88;5.75;;;16.60;99.90;;;;;;6247429;23;20224;-94
2023/07/23 01:01:38;;;;;;;8.27;5.50;;;16.60;99.90;;;;;;6247693;23;20259;-93
2023/07/23 01:04:06;;;;;;;7.43;5.30;;;16.60;99.90;;;;;;6247200;23;20247;-94
2023/07/23 01:06:37;;;;;;;6.65;4.97;;;16.60;99.90;;;;;;6247107;23;20169;-93
2023/07/23 01:09:05;;;;;;;7.22;5.25;;;16.50;99.90;;;;;;6247606;23;20484;-95
2023/07/23 01:11:34;;;;;;;6.30;5.32;;;16.50;99.90;;;;;;6247655;23;20176;-95
2023/07/23 01:14:03;;;;;;;9.75;5.45;;;16.50;1.00;;;;;;6247471;23;20170;-94
2023/07/23 01:16:31;;;;;;;7.45;5.38;;;16.50;1.00;;;;;;6247046;23;20278;-94
2023/07/23 01:18:59;;;;;;;7.18;5.70;;;16.50;1.00;;;;;;6247125;23;20258;-94
2023/07/23 01:21:27;;;;;;;7.20;5.18;;;16.50;1.00;;;;;;6247411;23;20178;-94
2023/07/23 01:23:55;;;;;;;6.78;5.60;;;16.40;1.00;;;;;;6247294;23;20174;-94
2023/07/23 01:26:22;;;;;;;7.40;5.28;;;16.40;1.00;;;;;;6247455;23;20171;-93
2023/07/23 01:28:48;;;;;;;6.45;5.38;;;16.50;1.00;;;;;;6246950;23;20176;-93
2023/07/23 01:31:15;;;;;;;7.25;5.00;;;16.40;1.00;;;;;;6247196;23;20196;-93
2023/07/23 01:33:42;;;;;;;7.40;5.80;;;16.50;1.00;;;;;;6249037;23;20539;-94
2023/07/23 01:36:10;;;;;;;7.15;5.18;;;16.50;1.00;;;;;;6249164;23;20254;-92
2023/07/23 01:38:37;;;;;;;7.60;5.25;;;16.50;1.00;;;;;;6249469;23;20313;-93
2023/07/23 01:41:06;;;;;;;8.57;4.85;;;16.50;1.00;;;;;;6249314;23;20205;-92
2023/07/23 01:43:33;;;;;;;6.82;5.22;;;16.50;1.00;;;;;;6248926;23;20199;-93
2023/07/23 01:46:00;;;;;;;8.50;4.70;;;16.50;1.00;;;;;;6249260;23;20257;-94
2023/07/23 01:48:27;;;;;;;6.80;5.20;;;16.60;1.00;;;;;;6248795;23;20169;-92
2023/07/23 01:50:53;;;;;;;7.45;5.32;;;16.60;1.00;;;;;;6248854;22;20230;-93
2023/07/23 01:53:20;;;;;;;6.10;5.13;;;16.50;1.00;;;;;;6249028;23;20251;-93
2023/07/23 01:55:47;;;;;;;9.02;5.03;;;16.50;1.00;;;;;;6248966;23;20169;-91
2023/07/23 01:58:15;;;;;;;9.95;5.45;;;16.60;1.00;;;;;;6248967;23;20198;-91
2023/07/23 02:00:42;;;;;;;7.53;4.93;;;16.60;1.00;;;;;;6249386;23;20179;-93
2023/07/23 02:03:09;;;;;;;7.65;5.07;;;16.60;1.00;;;;;;6248420;23;20250;-93
2023/07/23 02:05:39;;;;;;;7.72;5.00;;;16.60;1.00;;;;;;6249168;23;20685;-92
2023/07/23 02:08:06;;;;;;;8.38;5.07;;;16.60;1.00;;;;;;6248844;23;20251;-91
2023/07/23 02:10:32;;;;;;;6.88;5.28;;;16.60;1.00;;;;;;6249295;23;20633;-92
2023/07/23 02:12:59;;;;;;;7.20;5.53;;;16.60;1.00;;;;;;6249142;23;20168;-93
2023/07/23 02:15:27;;;;;;;7.18;5.20;;;16.60;1.00;;;;;;6249147;23;20195;-92
2023/07/23 02:17:54;;;;;;;6.38;4.93;;;16.60;1.00;;;;;;6247942;23;20665;-91
2023/07/23 02:20:21;;;;;;;6.50;5.10;;;16.60;1.00;;;;;;6248683;23;20258;-93
2023/07/23 02:22:48;;;;;;;6.97;4.90;;;16.60;1.00;;;;;;6248974;23;20595;-92
2023/07/23 02:25:15;;;;;;;6.78;5.05;;;16.60;1.00;;;;;;6248746;23;20507;-92
2023/07/23 02:27:42;;;;;;;7.13;5.10;;;16.60;1.00;;;;;;6248446;23;20250;-93
2023/07/23 02:30:10;;;;;;;6.63;5.22;;;16.60;1.00;;;;;;6248749;23;20199;-91
2023/07/23 02:32:38;;;;;;;6.13;4.85;;;16.60;1.00;;;;;;6248316;23;20561;-91
2023/07/23 02:35:05;;;;;;;5.88;5.25;;;16.60;1.00;;;;;;6248655;23;20251;-92
2023/07/23 02:37:32;;;;;;;8.85;4.97;;;16.60;1.00;;;;;;6248766;23;20192;-92
2023/07/23 02:39:59;;;;;;;6.85;5.07;;;16.70;1.00;;;;;;6248763;23;20178;-94
2023/07/23 02:42:26;;;;;;;6.13;5.10;;;16.60;1.00;;;;;;6248389;23;20250;-91
2023/07/23 02:44:53;;;;;;;7.07;5.22;;;16.70;1.00;;;;;;6248921;23;20171;-92
2023/07/23 02:47:19;;;;;;;8.00;4.80;;;16.70;1.00;;;;;;6248608;23;20212;-93
2023/07/23 02:49:48;;;;;;;7.40;5.32;;;16.70;99.90;;;;;;6248007;22;20202;-92
2023/07/23 02:52:15;;;;;;;6.97;4.60;;;16.70;99.90;;;;;;6248618;23;20227;-92
2023/07/23 02:54:43;;;;;;;7.45;4.78;;;16.80;99.90;;;;;;6248690;23;20630;-94
2023/07/23 02:57:09;;;;;;;5.93;4.65;;;16.80;99.90;;;;;;6248191;23;20876;-93
2023/07/23 02:59:36;;;;;;;7.43;4.95;;;16.80;46.80;;;;;;6248040;23;20960;-93
2023/07/23 03:02:03;;;;;;;6.32;4.75;;;16.80;99.90;;;;;;6248188;23;20266;-92
2023/07/23 03:04:30;;;;;;;7.75;4.90;;;16.70;92.10;;;;;;6248367;23;20188;-91
2023/07/23 03:06:58;;;;;;;6.30;4.72;;;16.70;99.90;;;;;;6248380;23;20713;-91
2023/07/23 03:09:25;;;;;;;7.32;4.80;;;16.60;99.90;;;;;;6248010;23;20254;-92
2023/07/23 03:11:52;;;;;;;6.88;4.60;;;16.60;99.90;;;;;;6248406;23;20203;-92
2023/07/23 03:14:18;;;;;;;6.75;4.22;;;16.70;99.90;;;;;;6248645;23;20218;-93
2023/07/23 03:16:45;;;;;;;5.30;4.43;;;16.70;99.90;;;;;;6248162;23;20188;-93
2023/07/23 03:19:12;;;;;;;5.78;4.53;;;16.70;12.40;;;;;;6247929;23;20199;-92
2023/07/23 03:21:39;;;;;;;8.10;4.70;;;16.80;1.00;;;;;;6248114;23;20630;-93
2023/07/23 03:24:08;;;;;;;7.13;4.93;;;16.80;96.60;;;;;;6248057;23;20170;-92
2023/07/23 03:26:35;;;;;;;7.65;4.75;;;16.80;99.90;;;;;;6248528;23;20174;-92
2023/07/23 03:29:01;;;;;;;5.32;4.32;;;16.80;99.90;;;;;;6247551;23;20175;-91
2023/07/23 03:31:28;;;;;;;8.90;4.47;;;16.80;99.90;;;;;;6247540;23;20690;-93
2023/07/23 03:33:55;;;;;;;6.75;4.40;;;16.80;99.90;;;;;;6248105;23;20195;-93
2023/07/23 03:36:23;;;;;;;8.05;5.00;;;16.70;99.90;;;;;;6247858;23;20502;-92
2023/07/23 03:38:50;;;;;;;8.23;5.20;;;16.60;99.90;;;;;;6248247;23;20223;-92
2023/07/23 03:41:19;;;;;;;6.82;4.97;;;16.60;1.00;;;;;;6247746;23;20164;-92
2023/07/23 03:43:47;;;;;;;7.82;5.18;;;16.60;1.00;;;;;;6247248;23;20171;-92
2023/07/23 03:46:14;;;;;;;5.80;4.60;;;16.60;1.00;;;;;;6247692;23;20172;-93
2023/07/23 03:48:41;;;;;;;5.93;4.95;;;16.70;85.90;;;;;;6247722;22;20169;-92
2023/07/23 03:51:08;;;;;;;6.35;5.07;;;16.70;9.30;;;;;;6247496;23;20649;-92
2023/07/23 03:53:34;;;;;;;7.00;4.97;;;16.70;99.90;;;;;;6248171;23;20247;-93
2023/07/23 03:56:01;;;;;;;7.28;5.07;;;16.80;99.90;;;;;;6247543;23;20178;-93
2023/07/23 03:58:29;;;;;;;7.57;5.10;;;16.70;99.90;;;;;;6247578;23;20231;-92
2023/07/23 04:00:56;;;;;;;7.18;5.38;;;16.70;1.00;;;;;;6247695;23;20176;-93
2023/07/23 04:03:23;;;;;;;8.65;5.63;;;16.70;1.00;;;;;;6247615;23;20522;-94
2023/07/23 04:05:50;;;;;;;15.32;6.22;;;16.70;1.00;;;;;;6248090;23;20178;-94
2023/07/23 04:08:16;;;;;;;7.15;5.50;;;16.60;1.00;;;;;;6247647;23;20709;-94
2023/07/23 04:10:43;;;;;;;8.25;5.90;;;16.50;99.90;;;;;;6248020;23;20173;-94
2023/07/23 04:13:10;;;;;;;10.68;6.07;;;16.50;99.90;;;;;;6247612;23;20167;-94
2023/07/23 04:15:38;;;;;;;6.90;5.57;;;16.50;99.90;;;;;;6247801;23;20250;-93
2023/07/23 04:18:13;;;;;;;9.82;6.03;;;16.50;1.00;;;;;;6248177;23;20223;-93
2023/07/23 04:20:40;;;;;;;8.60;5.82;;;16.50;1.00;;;;;;6247464;23;20489;-94
2023/07/23 04:23:07;;;;;;;10.68;5.90;;;16.50;1.00;;;;;;6247797;23;20172;-94
2023/07/23 04:25:34;;;;;;;9.57;5.72;;;16.50;54.50;;;;;;6248142;23;20171;-93
2023/07/23 04:28:00;;;;;;;11.13;6.72;;;16.50;99.90;;;;;;6248158;23;20256;-95
2023/07/23 04:30:28;;;;;;;9.23;6.20;;;16.50;99.90;;;;;;6248468;23;20501;-95
2023/07/23 04:32:57;;;;;;;7.47;5.88;;;16.60;99.90;;;;;;6248752;23;20176;-94
2023/07/23 04:35:24;;;;;;;10.52;6.10;;;16.60;99.90;;;;;;6249246;23;20206;-94
2023/07/23 04:37:50;;;;;;;8.98;5.88;;;16.60;99.90;;;;;;6248594;23;20274;-95
2023/07/23 04:40:17;;;;;;;7.88;6.15;;;16.70;99.90;;;;;;6249188;23;20183;-95
2023/07/23 04:42:44;;;;;;;9.70;6.60;;;16.70;99.90;;;;;;6249280;23;20173;-95
2023/07/23 04:45:11;;;;;;;10.52;6.30;;;16.80;99.90;;;;;;6253449;23;20180;-95
2023/07/23 04:47:40;;;;;;;9.77;6.15;;;16.80;1.00;;;;;;6256303;23;20172;-94
2023/07/23 04:50:09;;;;;;;7.28;6.00;;;16.80;1.00;;;;;;6259523;23;20207;-94
2023/07/23 04:52:36;;;;;;;7.70;5.97;;;16.90;1.00;;;;;;6272808;23;20172;-95
2023/07/23 04:55:03;;;;;;;9.48;6.30;;;16.90;1.00;;;;;;6269218;23;20176;-96
2023/07/23 04:57:30;;;;;;;9.23;6.45;;;16.90;1.00;;;;;;6272881;22;20195;-94
2023/07/23 04:59:57;;;;;;;10.20;6.72;;;17.00;1.00;;;;;;6273209;22;20167;-96
2023/07/23 05:02:27;;;;;;;8.93;6.65;;;17.00;1.00;;;;;;6274268;22;20155;-94
2023/07/23 05:04:56;;;;;;;11.32;6.90;;;17.00;1.00;;;;;;6273528;23;20182;-95
2023/07/23 05:07:27;;;;;;;10.70;6.75;;;17.00;1.00;;;;;;6275266;22;20181;-96
2023/07/23 05:09:54;;;;;;;8.10;6.50;;;17.10;1.00;;;;;;6274433;23;20157;-95
2023/07/23 05:12:21;;;;;;;9.30;7.00;;;17.10;1.00;;;;;;6272847;23;20178;-95
2023/07/23 05:14:48;;;;;;;8.77;6.93;;;17.20;1.00;;;;;;6269642;23;20152;-95
2023/07/23 05:17:15;;;;;;;8.63;6.72;;;17.30;1.00;;;;;;6268217;23;20172;-96
2023/07/23 05:19:43;;;;;;;10.52;6.80;;;17.40;1.00;;;;;;6267024;23;20187;-95
2023/07/23 05:22:10;;;;;;;11.05;7.30;;;17.50;1.00;;;;;;6263017;23;20164;-96
2023/07/23 05:24:38;;;;;;;10.35;7.03;;;17.70;99.90;;;;;;6256934;23;20207;-94
2023/07/23 05:27:06;;;;;;;10.90;7.10;;;17.80;99.90;;;;;;6262262;23;20195;-95
2023/07/23 05:29:33;;;;;;;9.05;6.82;;;17.90;99.90;;;;;;6255499;23;20234;-95
2023/07/23 05:31:59;;;;;;;9.07;6.75;;;17.90;99.90;;;;;;6253117;23;20192;-96
2023/07/23 05:34:26;;;;;;;9.52;7.03;;;18.00;99.90;;;;;;6251489;23;20554;-95
2023/07/23 05:36:53;;;;;;;10.60;6.93;;;18.00;99.90;;;;;;6251578;23;20203;-93
2023/07/23 05:39:20;;;;;;;10.45;6.90;;;18.00;73.10;;;;;;6259351;23;20214;-96
2023/07/23 05:41:48;;;;;;;9.65;6.43;;;17.90;99.90;;;;;;6251809;23;20509;-93
2023/07/23 05:44:17;;;;;;;9.00;7.43;;;17.80;99.90;;;;;;6259560;23;20207;-94
2023/07/23 05:46:44;;;;;;;9.20;6.93;;;17.80;99.90;;;;;;6238562;22;20228;-95
2023/07/23 05:49:11;;;;;;;7.97;6.85;;;17.80;99.90;;;;;;6230068;23;20176;-95
2023/07/23 05:51:38;;;;;;;9.55;6.97;;;17.90;99.90;;;;;;6239147;23;20177;-96
2023/07/23 05:59:09;;;;;;;9.35;6.68;;;18.70;99.90;;;;;;6206669;23;20200;-96
2023/07/23 06:01:37;;;;;;;8.77;6.93;;;18.80;1.00;;;;;;6229937;23;20169;-94
2023/07/23 06:04:04;;;;;;;7.70;6.20;;;18.90;1.00;;;;;;6218593;23;20228;-94
2023/07/23 06:06:31;;;;;;;10.15;6.68;;;18.90;1.00;;;;;;6218167;23;20165;-94
2023/07/23 06:08:57;;;;;;;9.48;7.13;;;18.90;1.00;;;;;;6217947;23;20184;-95
2023/07/23 06:11:24;;;;;;;9.90;6.82;;;18.90;1.00;;;;;;6218356;23;20558;-94
2023/07/23 06:13:51;;;;;;;10.32;7.25;;;19.00;99.90;;;;;;6218331;23;20264;-95
2023/07/23 06:16:19;;;;;;;10.50;7.13;;;18.90;99.90;;;;;;6218525;23;20657;-92
2023/07/23 06:18:46;;;;;;;8.32;6.38;;;19.00;99.90;;;;;;6217826;23;20227;-91
2023/07/23 06:21:13;;;;;;;10.07;6.70;;;19.00;99.90;;;;;;6218145;23;20268;-92
2023/07/23 06:23:40;;;;;;;11.80;7.22;;;19.10;99.90;;;;;;6217822;23;20634;-93
2023/07/23 06:26:07;;;;;;;8.07;6.47;;;19.20;99.90;;;;;;6218563;23;20181;-93
2023/07/23 06:28:34;;;;;;;8.40;6.75;;;19.30;65.60;;;;;;6218291;23;20169;-93
2023/07/23 06:31:01;;;;;;;8.35;6.90;;;19.40;1.00;;;;;;6218238;23;20719;-93
2023/07/23 06:33:29;;;;;;;9.35;6.70;;;19.50;1.00;;;;;;6217995;23;20167;-92
2023/07/23 06:35:56;;;;;;;12.45;6.60;;;19.60;1.00;;;;;;6218036;23;20563;-94
2023/07/23 06:38:24;;;;;;;7.60;6.00;;;19.80;1.00;;;;;;6218170;23;20578;-94
2023/07/23 06:40:53;;;;;;;10.75;7.05;;;19.90;1.00;;;;;;6218472;23;20252;-93
2023/07/23 06:43:20;;;;;;;9.02;5.88;;;20.20;1.00;;;;;;6218273;23;20203;-94
2023/07/23 06:45:48;;;;;;;8.40;6.88;;;20.40;99.90;;;;;;6218229;23;20173;-93
2023/07/23 06:48:16;;;;;;;8.38;6.63;;;20.50;99.90;;;;;;6218439;23;20225;-95
2023/07/23 06:50:45;;;;;;;9.23;6.50;;;20.70;99.90;;;;;;6217658;23;20193;-93
2023/07/23 06:53:12;;;;;;;8.52;6.30;;;20.80;1.00;;;;;;6217637;23;20641;-95
2023/07/23 06:56:01;;;;;;;8.88;6.20;;;20.90;1.00;;;;;;6217820;23;20172;-94
2023/07/23 06:58:29;;;;;;;7.22;6.40;;;20.90;1.00;;;;;;6218158;23;20527;-93
2023/07/23 07:00:55;;;;;;;7.00;6.15;;;21.00;1.00;;;;;;6248672;23;20157;-93
2023/07/23 07:03:22;;;;;;;8.63;6.53;;;21.10;1.00;;;;;;6247822;23;20218;-94
2023/07/23 07:05:50;;;;;;;7.57;6.50;;;21.30;1.00;;;;;;6247466;23;20239;-93
2023/07/23 07:08:17;;;;;;;8.10;6.15;;;21.30;99.90;;;;;;6248151;23;20251;-93
2023/07/23 07:10:46;;;;;;;9.30;6.85;;;21.20;99.90;;;;;;6248080;23;20188;-92
2023/07/23 07:13:13;;;;;;;8.45;6.03;;;21.10;99.90;;;;;;6247791;23;20204;-93
2023/07/23 07:15:41;;;;;;;8.23;5.78;;;21.00;99.90;;;;;;6248324;23;20172;-93
2023/07/23 07:18:08;;;;;;;9.38;6.32;;;21.00;99.90;;;;;;6248316;23;20194;-92
2023/07/23 07:20:35;;;;;;;9.60;6.85;;;20.90;1.00;;;;;;6248093;23;20408;-93
2023/07/23 07:23:03;;;;;;;8.43;6.28;;;20.80;99.90;;;;;;6247701;23;20641;-92
2023/07/23 07:25:30;;;;;;;8.45;6.18;;;20.80;1.00;;;;;;6248030;23;20243;-94
2023/07/23 07:27:57;;;;;;;8.90;6.38;;;20.90;1.00;;;;;;6247718;23;20251;-94
2023/07/23 07:30:23;;;;;;;11.52;6.13;;;21.10;1.00;;;;;;6247506;23;20196;-95
2023/07/23 07:32:52;;;;;;;11.90;6.35;;;21.30;1.00;;;;;;6248357;23;20247;-95
2023/07/23 07:35:19;;;;;;;8.85;6.60;;;21.50;99.90;;;;;;6247785;23;20251;-93
2023/07/23 07:37:47;;;;;;;8.23;5.80;;;21.60;6.20;;;;;;6247733;23;20251;-93
2023/07/23 07:40:15;;;;;;;7.57;6.32;;;21.70;1.00;;;;;;6248324;23;20173;-93
2023/07/23 07:42:42;;;;;;;8.55;5.60;;;21.80;1.00;;;;;;6248251;23;20176;-95
2023/07/23 07:45:10;;;;;;;8.50;5.93;;;21.90;1.00;;;;;;6247735;23;20168;-93
2023/07/23 07:47:36;;;;;;;8.88;5.90;;;22.10;1.00;;;;;;6247460;23;20246;-93
2023/07/23 07:50:05;;;;;;;6.55;5.75;;;22.30;1.00;;;;;;6248018;23;20247;-94
2023/07/23 07:52:32;;;;;;;6.80;5.22;;;22.40;99.90;;;;;;6247920;23;20168;-94
2023/07/23 07:55:00;;;;;;;8.90;5.63;;;22.60;99.90;;;;;;6247940;23;20175;-93
2023/07/23 07:57:28;;;;;;;6.63;5.13;;;22.60;99.90;;;;;;6247889;23;20250;-94
2023/07/23 07:59:55;;;;;;;6.75;5.45;;;22.60;99.90;;;;;;6246258;23;20379;-93
2023/07/23 08:02:23;;;;;;;6.68;5.63;;;22.70;59.80;;;;;;6248027;23;20174;-96
2023/07/23 08:04:50;;;;;;;7.05;4.90;;;22.70;1.00;;;;;;6247822;23;20174;-93
2023/07/23 08:07:19;;;;;;;6.78;5.30;;;22.60;1.00;;;;;;6247480;23;20168;-92
2023/07/23 08:09:46;;;;;;;6.63;4.63;;;22.60;1.00;;;;;;6247740;23;20172;-94
2023/07/23 08:12:16;;;;;;;6.60;4.90;;;22.60;1.00;;;;;;6247795;23;20200;-91
2023/07/23 08:14:46;;;;;;;5.97;4.50;;;22.70;1.00;;;;;;6247274;23;20168;-92
2023/07/23 08:17:13;;;;;;;7.70;5.88;;;22.70;1.00;;;;;;6247406;23;20179;-93
2023/07/23 08:19:40;;;;;;;5.88;4.68;;;22.70;1.00;;;;;;6247591;23;20574;-93
2023/07/23 08:22:08;;;;;;;6.43;4.50;;;22.70;1.00;;;;;;6247426;23;20554;-94
2023/07/23 08:24:35;;;;;;;4.72;4.00;;;22.70;1.00;;;;;;6248028;23;20726;-94
2023/07/23 08:27:04;;;;;;;6.82;4.40;;;22.70;1.00;;;;;;6247508;23;20243;-93
2023/07/23 08:29:34;;;;;;;12.68;9.43;;;22.80;1.00;;;;;;6247509;23;20525;-94
2023/07/23 08:32:03;;;;;;;7.00;4.20;;;22.90;1.00;;;;;;6247791;23;20152;-93
2023/07/23 08:34:30;;;;;;;8.02;4.25;;;23.00;1.00;;;;;;6247406;23;20175;-92
2023/07/23 08:36:58;;;;;;;6.60;4.43;;;23.00;1.00;;;;;;6246932;23;20191;-92
2023/07/23 08:39:25;;;;;;;6.38;4.68;;;23.10;99.90;;;;;;6246978;23;20195;-92
2023/07/23 08:42:13;;;;;;;6.63;4.80;;;23.10;99.90;;;;;;6247225;23;20250;-92
2023/07/23 08:45:17;;;;;;;5.90;4.55;;;23.00;99.90;;;;;;6247113;23;20149;-94
2023/07/23 08:47:48;;;;;;;6.72;4.65;;;23.10;99.90;;;;;;6247371;23;20172;-94
2023/07/23 08:50:15;;;;;;;5.53;4.55;;;23.30;99.90;;;;;;6247030;23;20159;-91
2023/07/23 08:52:43;;;;;;;5.68;4.70;;;23.50;99.90;;;;;;6247121;23;20251;-92
2023/07/23 08:55:11;;;;;;;7.30;4.72;;;23.80;99.90;;;;;;6247386;23;20172;-94
2023/07/23 08:57:39;;;;;;;5.47;4.68;;;24.30;99.90;;;;;;6247206;23;20172;-94
2023/07/23 09:00:07;;;;;;;6.75;4.50;;;24.50;99.90;;;;;;6246767;23;20196;-95
2023/07/23 09:02:35;;;;;;;5.60;4.43;;;24.50;89.20;;;;;;6246950;23;20631;-94
2023/07/23 09:05:03;;;;;;;13.30;7.88;;;24.50;44.70;;;;;;6246804;23;20172;-93
2023/07/23 09:07:30;;;;;;;7.68;4.65;;;24.40;1.00;;;;;;6247417;23;20202;-92
2023/07/23 09:09:58;;;;;;;8.93;5.20;;;24.30;1.00;;;;;;6247421;23;20267;-93
2023/07/23 09:12:25;;;;;;;6.85;4.15;;;24.40;25.40;;;;;;6247108;23;20260;-94
2023/07/23 09:14:52;;;;;;;4.95;4.45;;;24.70;15.30;;;;;;6245852;23;20544;-92
2023/07/23 09:17:20;;;;;;;9.93;4.03;;;25.00;1.00;;;;;;6246649;23;20168;-91
2023/07/23 09:19:48;;;;;;;5.40;4.43;;;25.10;1.00;;;;;;6246147;23;20575;-92
2023/07/23 09:22:18;;;;;;;29.10;16.70;;;25.30;1.00;;;;;;6247075;23;20172;-94
2023/07/23 09:24:45;;;;;;;6.93;5.47;;;25.50;1.00;;;;;;6247101;23;20235;-92
2023/07/23 09:27:12;;;;;;;11.95;7.30;;;25.60;1.00;;;;;;6247149;23;20510;-92
2023/07/23 09:29:40;;;;;;;6.88;3.78;;;25.70;1.00;;;;;;6246465;23;20164;-93
2023/07/23 09:32:23;;;;;;;5.78;3.95;;;26.00;1.00;;;;;;6246624;23;20183;-93
2023/07/23 09:34:50;;;;;;;7.70;4.47;;;26.30;1.00;;;;;;6247222;23;20160;-94
2023/07/23 09:37:18;;;;;;;5.63;4.38;;;26.60;1.00;;;;;;6246505;23;20622;-93
2023/07/23 09:39:45;;;;;;;4.93;3.92;;;26.70;1.00;;;;;;6246528;23;20181;-93
2023/07/23 09:42:12;;;;;;;4.65;3.80;;;26.90;1.00;;;;;;6246714;23;20168;-93
2023/07/23 09:44:39;;;;;;;4.72;3.60;;;27.00;1.00;;;;;;6247101;23;20192;-95
2023/07/23 09:47:07;;;;;;;6.28;3.63;;;27.10;1.00;;;;;;6246944;23;20199;-93
2023/07/23 09:49:33;;;;;;;3.90;3.50;;;27.10;1.00;;;;;;6246571;23;20168;-93
2023/07/23 09:52:07;;;;;;;4.45;3.53;;;26.90;1.00;;;;;;6246879;23;20169;-94
2023/07/23 09:54:36;;;;;;;4.63;3.53;;;26.70;1.00;;;;;;6248931;23;20153;-94
2023/07/23 09:57:04;;;;;;;4.45;4.05;;;26.70;1.00;;;;;;6247902;23;20200;-92
2023/07/23 09:59:31;;;;;;;5.07;3.90;;;26.80;1.00;;;;;;6248087;22;20530;-94
2023/07/23 10:01:58;;;;;;;5.20;3.50;;;27.00;1.00;;;;;;6248500;23;20247;-94
2023/07/23 10:04:29;;;;;;;3.67;3.25;;;27.10;1.00;;;;;;6248724;23;20247;-94
2023/07/23 10:06:56;;;;;;;4.28;3.58;;;27.10;1.00;;;;;;6249015;23;20153;-95
2023/07/23 10:09:24;;;;;;;4.10;3.42;;;27.10;1.00;;;;;;6248060;23;20247;-96
2023/07/23 10:11:52;;;;;;;4.35;3.28;;;27.10;1.00;;;;;;6248734;23;20622;-93
2023/07/23 10:14:19;;;;;;;6.18;3.60;;;27.10;1.00;;;;;;6248673;23;20178;-92
2023/07/23 10:16:46;;;;;;;5.88;3.72;;;27.10;1.00;;;;;;6248845;23;20561;-93
2023/07/23 10:19:15;;;;;;;4.45;3.30;;;27.20;1.00;;;;;;6248407;23;20188;-93
2023/07/23 10:21:46;;;;;;;6.65;3.72;;;27.30;1.00;;;;;;6247772;23;20635;-93
2023/07/23 10:24:13;;;;;;;3.97;3.38;;;27.40;1.00;;;;;;6248795;23;20153;-94
2023/07/23 10:26:41;;;;;;;7.72;3.58;;;27.40;1.00;;;;;;6248545;23;20251;-93
2023/07/23 10:29:14;;;;;;;4.38;3.60;;;27.50;1.00;;;;;;6248812;23;20175;-92
2023/07/23 10:31:43;;;;;;;4.72;3.50;;;27.60;1.00;;;;;;6248640;23;20157;-93
2023/07/23 10:34:41;;;;;;;7.75;6.90;;;27.90;1.00;;;;;;6247951;23;20176;-93
2023/07/23 10:37:12;;;;;;;5.15;3.60;;;28.00;1.00;;;;;;6248370;23;20218;-93
2023/07/23 10:39:40;;;;;;;3.97;3.58;;;28.10;1.00;;;;;;6248704;23;20199;-94
2023/07/23 10:42:07;;;;;;;7.90;3.53;;;28.30;1.00;;;;;;6248433;23;20553;-95
2023/07/23 10:44:39;;;;;;;4.60;3.60;;;28.40;1.00;;;;;;6248185;23;20203;-95
2023/07/23 10:47:29;;;;;;;5.85;3.83;;;28.30;1.00;;;;;;6248189;23;20159;-95
2023/07/23 10:50:10;;;;;;;5.55;3.90;;;28.10;1.00;;;;;;6248746;23;20156;-95
2023/07/23 10:52:37;;;;;;;6.07;3.33;;;27.70;1.00;;;;;;6248204;23;20172;-96
2023/07/23 10:55:05;;;;;;;4.65;3.88;;;27.50;1.00;;;;;;6248348;23;20206;-96
2023/07/23 10:57:32;;;;;;;4.50;3.60;;;27.20;1.00;;;;;;6248018;23;20174;-96
2023/07/23 11:00:02;;;;;;;5.22;3.88;;;26.90;1.00;;;;;;6247851;22;20220;-95
2023/07/23 11:02:29;;;;;;;4.35;3.65;;;26.70;1.00;;;;;;6249018;23;20551;-95
2023/07/23 11:04:57;;;;;;;4.93;3.70;;;26.50;1.00;;;;;;6249029;23;20179;-96
2023/07/23 11:07:27;;;;;;;4.70;3.58;;;26.60;1.00;;;;;;6248250;23;20172;-96
2023/07/23 11:09:56;;;;;;;5.18;3.80;;;26.80;1.00;;;;;;6252272;23;20235;-96
2023/07/23 11:12:24;;;;;;;5.28;3.88;;;27.00;1.00;;;;;;6258936;23;20156;-96
2023/07/23 11:14:52;;;;;;;5.00;3.95;;;27.20;1.00;;;;;;6255947;23;20172;-96
2023/07/23 11:17:20;;;;;;;4.55;3.90;;;27.50;1.00;;;;;;6249792;23;20174;-96
2023/07/23 11:19:48;;;;;;;4.40;3.42;;;27.80;1.00;;;;;;6249714;23;20267;-96
2023/07/23 11:22:15;;;;;;;4.55;3.10;;;28.20;1.00;;;;;;6247788;23;20648;-96
2023/07/23 11:24:42;;;;;;;4.82;3.30;;;28.60;1.00;;;;;;6248515;23;20250;-96
2023/07/23 11:27:11;;;;;;;5.28;3.25;;;28.80;1.00;;;;;;6248432;23;20622;-96
2023/07/23 11:29:37;;;;;;;4.05;3.60;;;28.90;1.00;;;;;;6249375;23;20191;-96
2023/07/23 11:32:05;;;;;;;5.18;3.70;;;28.90;1.00;;;;;;6248113;23;20192;-93
2023/07/23 11:34:34;;;;;;;5.18;3.20;;;29.00;1.00;;;;;;6247262;23;20165;-95
2023/07/23 11:37:00;;;;;;;3.80;3.20;;;29.00;1.00;;;;;;6247306;23;20251;-96
2023/07/23 11:39:27;;;;;;;3.55;3.20;;;29.00;1.00;;;;;;6247419;23;20381;-95
2023/07/23 11:41:55;;;;;;;4.50;3.60;;;29.00;1.00;;;;;;6247481;23;20255;-94
2023/07/23 11:44:22;;;;;;;6.38;3.80;;;29.00;1.00;;;;;;6247581;23;20175;-93
2023/07/23 11:46:49;;;;;;;4.05;3.30;;;29.10;1.00;;;;;;6247565;23;20556;-96
2023/07/23 11:49:17;;;;;;;5.10;3.55;;;29.00;1.00;;;;;;6246908;23;20259;-94
2023/07/23 11:51:45;;;;;;;5.30;3.58;;;29.00;1.00;;;;;;6247695;23;20499;-95
2023/07/23 11:54:13;;;;;;;5.13;3.03;;;29.00;1.00;;;;;;6247836;23;20177;-95
2023/07/23 11:56:42;;;;;;;5.00;3.38;;;29.00;1.00;;;;;;6247977;23;20504;-95
2023/07/23 11:59:11;;;;;;;6.07;3.40;;;29.00;1.00;;;;;;6247359;22;20234;-94
2023/07/23 12:01:39;;;;;;;4.00;3.42;;;29.10;1.00;;;;;;6248072;23;20250;-95
2023/07/23 12:04:07;;;;;;;4.88;3.00;;;29.30;1.00;;;;;;6247837;23;20516;-94
2023/07/23 12:06:36;;;;;;;5.57;3.40;;;29.40;1.00;;;;;;6247767;23;20191;-94
2023/07/23 12:09:06;;;;;;;4.10;3.03;;;29.40;1.00;;;;;;6247896;23;20168;-94
2023/07/23 12:11:33;;;;;;;3.58;3.15;;;29.50;1.00;;;;;;6247751;23;20509;-95
2023/07/23 12:14:03;;;;;;;3.63;3.15;;;29.40;1.00;;;;;;6247879;23;20172;-95
2023/07/23 12:16:38;;;;;;;3.42;3.13;;;29.40;1.00;;;;;;6247180;23;20156;-95
2023/07/23 12:19:06;;;;;;;5.55;3.30;;;29.50;1.00;;;;;;6247741;23;20174;-95
2023/07/23 12:21:35;;;;;;;4.35;3.58;;;29.60;1.00;;;;;;6247666;23;20238;-95
2023/07/23 12:24:18;;;;;;;3.88;3.20;;;29.60;1.00;;;;;;6247508;23;20168;-95
2023/07/23 12:26:48;;;;;;;4.25;3.42;;;29.70;1.00;;;;;;6246797;23;20630;-95
2023/07/23 12:29:15;;;;;;;4.43;3.40;;;29.80;99.90;;;;;;6247441;23;20160;-95
2023/07/23 12:31:44;;;;;;;4.90;3.05;;;29.80;99.90;;;;;;6247458;23;20175;-95
2023/07/23 12:34:12;;;;;;;4.65;2.97;;;29.80;99.90;;;;;;6246882;23;20172;-95
2023/07/23 12:36:39;;;;;;;3.42;3.10;;;29.90;99.90;;;;;;6247312;23;20183;-95
2023/07/23 12:39:07;;;;;;;4.50;3.17;;;29.90;99.90;;;;;;6247262;23;20179;-94
2023/07/23 12:41:36;;;;;;;4.22;2.83;;;29.90;99.90;;;;;;6247133;23;20192;-96
2023/07/23 12:44:04;;;;;;;4.75;3.50;;;29.90;99.90;;;;;;6247533;23;20172;-95
2023/07/23 12:46:31;;;;;;;4.28;3.28;;;29.80;99.90;;;;;;6247208;23;20930;-94
2023/07/23 12:48:58;;;;;;;5.57;3.47;;;29.80;99.90;;;;;;6247608;23;20172;-95
2023/07/23 12:51:25;;;;;;;3.78;3.38;;;29.80;99.90;;;;;;6246998;23;20168;-93
2023/07/23 12:53:52;;;;;;;3.85;3.45;;;29.80;99.90;;;;;;6246905;23;20613;-95
2023/07/23 12:56:19;;;;;;;4.38;3.20;;;29.80;99.90;;;;;;6246784;23;20183;-95
2023/07/23 12:58:47;;;;;;;4.45;3.25;;;29.70;99.90;;;;;;6246884;22;20196;-94
2023/07/23 13:01:14;;;;;;;5.57;3.33;;;29.70;99.90;;;;;;6246994;23;20228;-94